Bangkok Bridge — 3FTZ8 — position and weather

sailwx.info

Track history (hours):
 
Tides and Currents Weather Stations Pressure Air Temp Water Temp Dewpoint Dewpoint Depression Visibility Wind Speed Wind Dir Waves Ship Positions

Bangkok Bridge

Last reported at 2014-Aug-30 01:33 UTC. Time now 2014-Aug-30 02:29 UTC.
Position N 29°57' E 121°51'.

Length 267 m; draft 10.7 m.

Type: Ship (hazmat cat A). MMSI: 353368000.

Date/timePositionNaut miles runAvg speedWind from/ knotsBaromVisibWave heightAir tempDewpointWater temp
2014-Aug-30 01:33N 29°57' E 121°51'0 0.0
2014-Aug-30 00:33N 29°57' E 121°51'0 0.0
2014-Aug-29 23:33N 29°57' E 121°51'0 0.0
2014-Aug-29 22:33N 29°57' E 121°51'0 0.0
2014-Aug-29 21:33N 29°57' E 121°51'0 0.0
2014-Aug-29 20:33N 29°57' E 121°51'0 0.0
2014-Aug-29 19:33N 29°57' E 121°51'0 0.0
2014-Aug-29 18:33N 29°57' E 121°51'0 0.0
2014-Aug-29 17:33N 29°57' E 121°51'0 0.0
2014-Aug-29 16:33N 29°57' E 121°51'0 0.0
2014-Aug-29 15:33N 29°57' E 121°51'0 0.0
2014-Aug-29 14:30N 29°57' E 121°51'0 0.0
2014-Aug-29 13:33N 29°57' E 121°51'0 0.0
2014-Aug-29 12:33N 29°57' E 121°51'0 0.0
2014-Aug-29 11:33N 29°57' E 121°51'0 0.0
2014-Aug-29 10:33N 29°57' E 121°51'0 0.0
2014-Aug-29 09:21N 29°57' E 121°51'0 0.0
2014-Aug-29 08:30N 29°57' E 121°51'0 0.5
2014-Aug-29 07:33N 29°57' E 121°51'8 7.8
2014-Aug-29 06:33N 29°57' E 121°60'1313.1
2014-Aug-29 05:33N 29°50' E 122°13'1010.4
2014-Aug-29 04:33N 29°44' E 122°22'9 9.1
2014-Aug-29 03:33N 29°42' E 122°33'1211.8
2014-Aug-29 02:33N 29°48' E 122°44'1514.2
2014-Aug-29 01:29N 29°58' E 122°58'1514.2
2014-Aug-29 00:26N 30°12' E 123°04'1615.8
2014-Aug-28 23:23N 30°28' E 123°04'1517.1
2014-Aug-28 22:31N 30°42' E 122°59'1717.1
2014-Aug-28 21:33N 30°58' E 122°52'1716.2
2014-Aug-28 20:31N 31°05' E 122°34'1111.2
2014-Aug-28 19:33N 31°06' E 122°22'3014.7
2014-Aug-28 17:31N 31°17' E 121°49'9 9.0
2014-Aug-28 16:32N 31°20' E 121°39'0 0.0
2014-Aug-28 15:27N 31°20' E 121°39'0 0.0
2014-Aug-28 14:27N 31°20' E 121°39'0 0.0
2014-Aug-28 12:09N 31°20' E 121°39'0 0.0
2014-Aug-28 09:15N 31°20' E 121°39'0 0.0
2014-Aug-28 08:33N 31°20' E 121°39'0 0.0
2014-Aug-28 07:33N 31°20' E 121°39'0 0.0
2014-Aug-28 06:27N 31°20' E 121°39'0 0.0
2014-Aug-28 05:09N 31°20' E 121°39'0 0.0
2014-Aug-28 01:09N 31°20' E 121°39'0 0.0
2014-Aug-28 00:33N 31°20' E 121°39'0 0.0
2014-Aug-27 23:27N 31°20' E 121°39'0 0.0
2014-Aug-27 21:27N 31°20' E 121°39'0 0.0
2014-Aug-27 20:27N 31°20' E 121°39'0 0.0
2014-Aug-27 17:15N 31°20' E 121°39'0 0.0
2014-Aug-27 15:24N 31°20' E 121°39'2 2.6
2014-Aug-27 14:32N 31°20' E 121°42'1514.1
2014-Aug-27 13:30N 31°15' E 121°58'32 1.5
2014-Aug-26 16:29N 31°12' E 122°35'64 1.2
2014-Aug-24 13:09N 32°14' E 122°51'812.4
2014-Aug-24 12:32N 32°22' E 122°51'255 7.7
2014-Aug-23 03:11N 36°01' E 120°13'0 0.1
2014-Aug-23 02:30N 36°01' E 120°13'6 6.1
2014-Aug-23 01:33N 36°02' E 120°20'1716.6
2014-Aug-23 00:33N 35°58' E 120°40'  
Track history (hours):
 
Tides and Currents Weather Stations Pressure Air Temp Water Temp Dewpoint Dewpoint Depression Visibility Wind Speed Wind Dir Waves Ship Positions

Bangkok Bridge

Last reported at 2014-Aug-30 01:33 UTC. Time now 2014-Aug-30 02:29 UTC.
Position N 29°57' E 121°51'.

Length 267 m; draft 10.7 m.

Type: Ship (hazmat cat A). MMSI: 353368000.

Date/timePositionNaut miles runAvg speedWind from/ knotsBaromVisibWave heightAir tempDewpointWater temp
2014-Aug-30 01:33N 29°57' E 121°51'0 0.0
2014-Aug-30 00:33N 29°57' E 121°51'0 0.0
2014-Aug-29 23:33N 29°57' E 121°51'0 0.0
2014-Aug-29 22:33N 29°57' E 121°51'0 0.0
2014-Aug-29 21:33N 29°57' E 121°51'0 0.0
2014-Aug-29 20:33N 29°57' E 121°51'0 0.0
2014-Aug-29 19:33N 29°57' E 121°51'0 0.0
2014-Aug-29 18:33N 29°57' E 121°51'0 0.0
2014-Aug-29 17:33N 29°57' E 121°51'0 0.0
2014-Aug-29 16:33N 29°57' E 121°51'0 0.0
2014-Aug-29 15:33N 29°57' E 121°51'0 0.0
2014-Aug-29 14:30N 29°57' E 121°51'0 0.0
2014-Aug-29 13:33N 29°57' E 121°51'0 0.0
2014-Aug-29 12:33N 29°57' E 121°51'0 0.0
2014-Aug-29 11:33N 29°57' E 121°51'0 0.0
2014-Aug-29 10:33N 29°57' E 121°51'0 0.0
2014-Aug-29 09:21N 29°57' E 121°51'0 0.0
2014-Aug-29 08:30N 29°57' E 121°51'0 0.5
2014-Aug-29 07:33N 29°57' E 121°51'8 7.8
2014-Aug-29 06:33N 29°57' E 121°60'1313.1
2014-Aug-29 05:33N 29°50' E 122°13'1010.4
2014-Aug-29 04:33N 29°44' E 122°22'9 9.1
2014-Aug-29 03:33N 29°42' E 122°33'1211.8
2014-Aug-29 02:33N 29°48' E 122°44'1514.2
2014-Aug-29 01:29N 29°58' E 122°58'1514.2
2014-Aug-29 00:26N 30°12' E 123°04'1615.8
2014-Aug-28 23:23N 30°28' E 123°04'1517.1
2014-Aug-28 22:31N 30°42' E 122°59'1717.1
2014-Aug-28 21:33N 30°58' E 122°52'1716.2
2014-Aug-28 20:31N 31°05' E 122°34'1111.2
2014-Aug-28 19:33N 31°06' E 122°22'3014.7
2014-Aug-28 17:31N 31°17' E 121°49'9 9.0
2014-Aug-28 16:32N 31°20' E 121°39'0 0.0
2014-Aug-28 15:27N 31°20' E 121°39'0 0.0
2014-Aug-28 14:27N 31°20' E 121°39'0 0.0
2014-Aug-28 12:09N 31°20' E 121°39'0 0.0
2014-Aug-28 09:15N 31°20' E 121°39'0 0.0
2014-Aug-28 08:33N 31°20' E 121°39'0 0.0
2014-Aug-28 07:33N 31°20' E 121°39'0 0.0
2014-Aug-28 06:27N 31°20' E 121°39'0 0.0
2014-Aug-28 05:09N 31°20' E 121°39'0 0.0
2014-Aug-28 01:09N 31°20' E 121°39'0 0.0
2014-Aug-28 00:33N 31°20' E 121°39'0 0.0
2014-Aug-27 23:27N 31°20' E 121°39'0 0.0
2014-Aug-27 21:27N 31°20' E 121°39'0 0.0
2014-Aug-27 20:27N 31°20' E 121°39'0 0.0
2014-Aug-27 17:15N 31°20' E 121°39'0 0.0
2014-Aug-27 15:24N 31°20' E 121°39'2 2.6
2014-Aug-27 14:32N 31°20' E 121°42'1514.1
2014-Aug-27 13:30N 31°15' E 121°58'32 1.5
2014-Aug-26 16:29N 31°12' E 122°35'64 1.2
2014-Aug-24 13:09N 32°14' E 122°51'812.4
2014-Aug-24 12:32N 32°22' E 122°51'255 7.7
2014-Aug-23 03:11N 36°01' E 120°13'0 0.1
2014-Aug-23 02:30N 36°01' E 120°13'6 6.1
2014-Aug-23 01:33N 36°02' E 120°20'1716.6
2014-Aug-23 00:33N 35°58' E 120°40'  

Dump ship's entire track history